sensor_id;sensor_type;location;lat;lon;timestamp;pressure;altitude;pressure_sealevel;temperature;humidity
3428;BME280;1727;42.624;23.406;2023-07-20T00:02:17;94529.97;;;26.28;59.00
3428;BME280;1727;42.624;23.406;2023-07-20T00:04:47;94539.47;;;26.07;60.01
3428;BME280;1727;42.624;23.406;2023-07-20T00:07:13;94562.03;;;25.94;61.26
3428;BME280;1727;42.624;23.406;2023-07-20T00:09:40;94562.75;;;25.78;61.22
3428;BME280;1727;42.624;23.406;2023-07-20T00:12:09;94557.50;;;25.53;62.57
3428;BME280;1727;42.624;23.406;2023-07-20T00:14:35;94559.34;;;25.41;63.63
3428;BME280;1727;42.624;23.406;2023-07-20T00:17:02;94551.63;;;25.33;64.17
3428;BME280;1727;42.624;23.406;2023-07-20T00:19:29;94550.44;;;25.29;63.16
3428;BME280;1727;42.624;23.406;2023-07-20T00:21:57;94541.06;;;25.20;63.45
3428;BME280;1727;42.624;23.406;2023-07-20T00:24:26;94532.31;;;25.24;63.26
3428;BME280;1727;42.624;23.406;2023-07-20T00:26:53;94532.69;;;25.40;63.21
3428;BME280;1727;42.624;23.406;2023-07-20T00:29:21;94524.09;;;25.49;62.59
3428;BME280;1727;42.624;23.406;2023-07-20T00:31:48;94514.41;;;25.60;62.36
3428;BME280;1727;42.624;23.406;2023-07-20T00:34:15;94525.56;;;25.75;62.07
3428;BME280;1727;42.624;23.406;2023-07-20T00:36:41;94526.16;;;25.77;61.55
3428;BME280;1727;42.624;23.406;2023-07-20T00:39:08;94524.84;;;25.68;61.58
3428;BME280;1727;42.624;23.406;2023-07-20T00:41:35;94518.84;;;25.54;61.36
3428;BME280;1727;42.624;23.406;2023-07-20T00:44:02;94517.91;;;25.49;61.75
3428;BME280;1727;42.624;23.406;2023-07-20T00:46:30;94515.69;;;25.46;62.85
3428;BME280;1727;42.624;23.406;2023-07-20T00:48:58;94524.22;;;25.54;62.31
3428;BME280;1727;42.624;23.406;2023-07-20T00:51:26;94522.16;;;25.68;63.07
3428;BME280;1727;42.624;23.406;2023-07-20T00:53:53;94523.00;;;25.80;61.69
3428;BME280;1727;42.624;23.406;2023-07-20T00:56:20;94519.25;;;25.81;62.13
3428;BME280;1727;42.624;23.406;2023-07-20T00:58:48;94515.47;;;25.59;60.85
3428;BME280;1727;42.624;23.406;2023-07-20T01:01:15;94512.16;;;25.04;64.05
3428;BME280;1727;42.624;23.406;2023-07-20T01:03:43;94525.91;;;24.29;66.48
3428;BME280;1727;42.624;23.406;2023-07-20T01:06:15;94524.63;;;23.88;69.74
3428;BME280;1727;42.624;23.406;2023-07-20T01:08:58;94521.34;;;23.86;69.99
3428;BME280;1727;42.624;23.406;2023-07-20T01:11:35;94530.28;;;23.98;69.94
3428;BME280;1727;42.624;23.406;2023-07-20T01:14:03;94532.38;;;23.96;69.08
3428;BME280;1727;42.624;23.406;2023-07-20T01:16:30;94534.88;;;24.16;68.29
3428;BME280;1727;42.624;23.406;2023-07-20T01:18:58;94534.53;;;24.49;68.31
3428;BME280;1727;42.624;23.406;2023-07-20T01:21:31;94537.47;;;24.78;66.79
3428;BME280;1727;42.624;23.406;2023-07-20T01:24:18;94539.25;;;25.02;66.38
3428;BME280;1727;42.624;23.406;2023-07-20T01:30:14;94533.88;;;25.44;64.93
3428;BME280;1727;42.624;23.406;2023-07-20T01:32:44;94531.09;;;25.50;63.94
3428;BME280;1727;42.624;23.406;2023-07-20T01:35:14;94524.47;;;25.64;63.97
3428;BME280;1727;42.624;23.406;2023-07-20T01:37:43;94521.34;;;25.68;63.15
3428;BME280;1727;42.624;23.406;2023-07-20T01:40:13;94526.00;;;25.72;63.53
3428;BME280;1727;42.624;23.406;2023-07-20T01:42:43;94530.31;;;25.73;62.90
3428;BME280;1727;42.624;23.406;2023-07-20T01:45:10;94528.59;;;25.79;62.16
3428;BME280;1727;42.624;23.406;2023-07-20T01:47:37;94523.69;;;25.87;63.09
3428;BME280;1727;42.624;23.406;2023-07-20T01:50:07;94521.47;;;25.84;62.08
3428;BME280;1727;42.624;23.406;2023-07-20T01:52:33;94523.69;;;25.87;62.58
3428;BME280;1727;42.624;23.406;2023-07-20T01:55:00;94524.28;;;25.89;62.46
3428;BME280;1727;42.624;23.406;2023-07-20T01:57:27;94522.41;;;25.78;61.93
3428;BME280;1727;42.624;23.406;2023-07-20T01:59:54;94514.00;;;25.75;62.99
3428;BME280;1727;42.624;23.406;2023-07-20T02:02:20;94519.97;;;25.77;63.01
3428;BME280;1727;42.624;23.406;2023-07-20T02:04:47;94523.09;;;25.85;63.08
3428;BME280;1727;42.624;23.406;2023-07-20T02:07:15;94509.66;;;25.85;62.58
3428;BME280;1727;42.624;23.406;2023-07-20T02:09:42;94504.06;;;25.75;62.38
3428;BME280;1727;42.624;23.406;2023-07-20T02:12:09;94504.59;;;25.66;62.64
3428;BME280;1727;42.624;23.406;2023-07-20T02:14:36;94510.44;;;25.62;63.36
3428;BME280;1727;42.624;23.406;2023-07-20T02:17:03;94508.94;;;25.67;63.79
3428;BME280;1727;42.624;23.406;2023-07-20T02:19:30;94503.53;;;25.55;62.79
3428;BME280;1727;42.624;23.406;2023-07-20T02:21:57;94502.03;;;25.47;63.19
3428;BME280;1727;42.624;23.406;2023-07-20T02:24:25;94507.81;;;25.44;63.60
3428;BME280;1727;42.624;23.406;2023-07-20T02:26:52;94510.84;;;25.36;64.04
3428;BME280;1727;42.624;23.406;2023-07-20T02:29:19;94514.69;;;25.17;64.27
3428;BME280;1727;42.624;23.406;2023-07-20T02:31:46;94510.78;;;25.13;65.24
3428;BME280;1727;42.624;23.406;2023-07-20T02:34:12;94511.59;;;25.13;65.14
3428;BME280;1727;42.624;23.406;2023-07-20T02:36:40;94506.25;;;25.13;65.25
3428;BME280;1727;42.624;23.406;2023-07-20T02:39:08;94504.47;;;25.07;65.40
3428;BME280;1727;42.624;23.406;2023-07-20T02:41:37;94501.63;;;25.20;65.69
3428;BME280;1727;42.624;23.406;2023-07-20T02:44:04;94507.00;;;25.32;64.99
3428;BME280;1727;42.624;23.406;2023-07-20T02:46:30;94501.28;;;25.40;64.77
3428;BME280;1727;42.624;23.406;2023-07-20T02:48:57;94490.69;;;25.45;64.66
3428;BME280;1727;42.624;23.406;2023-07-20T02:51:24;94490.81;;;25.50;64.40
3428;BME280;1727;42.624;23.406;2023-07-20T02:53:51;94479.94;;;25.45;63.73
3428;BME280;1727;42.624;23.406;2023-07-20T02:56:17;94480.03;;;25.39;64.33
3428;BME280;1727;42.624;23.406;2023-07-20T02:58:46;94485.84;;;25.36;64.29
3428;BME280;1727;42.624;23.406;2023-07-20T03:01:12;94487.25;;;25.38;64.53
3428;BME280;1727;42.624;23.406;2023-07-20T03:03:41;94487.16;;;25.33;64.43
3428;BME280;1727;42.624;23.406;2023-07-20T03:06:12;94480.84;;;25.27;64.75
3428;BME280;1727;42.624;23.406;2023-07-20T03:08:40;94489.94;;;25.26;64.65
3428;BME280;1727;42.624;23.406;2023-07-20T03:11:07;94484.75;;;25.13;64.03
3428;BME280;1727;42.624;23.406;2023-07-20T03:13:34;94493.78;;;24.89;65.53
3428;BME280;1727;42.624;23.406;2023-07-20T03:16:02;94495.56;;;24.77;65.63
3428;BME280;1727;42.624;23.406;2023-07-20T03:18:29;94498.34;;;24.70;66.05
3428;BME280;1727;42.624;23.406;2023-07-20T03:20:56;94494.25;;;24.67;65.93
3428;BME280;1727;42.624;23.406;2023-07-20T03:23:23;94498.59;;;24.68;66.53
3428;BME280;1727;42.624;23.406;2023-07-20T03:25:51;94510.28;;;24.74;66.12
3428;BME280;1727;42.624;23.406;2023-07-20T03:28:20;94509.78;;;24.65;66.24
3428;BME280;1727;42.624;23.406;2023-07-20T03:30:53;94509.06;;;24.58;66.15
3428;BME280;1727;42.624;23.406;2023-07-20T03:33:21;94508.69;;;24.36;67.05
3428;BME280;1727;42.624;23.406;2023-07-20T03:35:48;94520.91;;;24.32;66.97
3428;BME280;1727;42.624;23.406;2023-07-20T03:38:15;94516.13;;;24.34;67.61
3428;BME280;1727;42.624;23.406;2023-07-20T03:40:49;94515.69;;;24.37;67.10
3428;BME280;1727;42.624;23.406;2023-07-20T03:43:16;94504.00;;;24.32;66.58
3428;BME280;1727;42.624;23.406;2023-07-20T03:45:43;94509.38;;;24.32;67.33
3428;BME280;1727;42.624;23.406;2023-07-20T03:48:10;94510.28;;;24.19;68.04
3428;BME280;1727;42.624;23.406;2023-07-20T03:50:39;94513.47;;;24.34;67.58
3428;BME280;1727;42.624;23.406;2023-07-20T03:53:05;94511.72;;;24.40;67.39
3428;BME280;1727;42.624;23.406;2023-07-20T03:55:32;94518.97;;;24.58;65.68
3428;BME280;1727;42.624;23.406;2023-07-20T03:58:00;94514.69;;;24.68;65.64
3428;BME280;1727;42.624;23.406;2023-07-20T04:00:27;94520.19;;;24.74;64.85
3428;BME280;1727;42.624;23.406;2023-07-20T04:02:54;94521.25;;;24.73;64.93
3428;BME280;1727;42.624;23.406;2023-07-20T04:05:21;94526.16;;;24.76;64.37
3428;BME280;1727;42.624;23.406;2023-07-20T04:07:49;94528.25;;;24.74;65.03
3428;BME280;1727;42.624;23.406;2023-07-20T04:10:17;94535.03;;;24.76;64.75
3428;BME280;1727;42.624;23.406;2023-07-20T04:12:44;94523.47;;;24.76;64.83
3428;BME280;1727;42.624;23.406;2023-07-20T04:15:12;94516.09;;;24.71;65.29
3428;BME280;1727;42.624;23.406;2023-07-20T04:17:39;94510.03;;;24.76;65.75
3428;BME280;1727;42.624;23.406;2023-07-20T04:20:07;94511.22;;;24.80;65.16
3428;BME280;1727;42.624;23.406;2023-07-20T04:22:36;94511.53;;;24.90;65.13
3428;BME280;1727;42.624;23.406;2023-07-20T04:25:09;94514.41;;;25.07;64.14
3428;BME280;1727;42.624;23.406;2023-07-20T04:27:36;94512.84;;;25.29;63.03
3428;BME280;1727;42.624;23.406;2023-07-20T04:30:04;94504.94;;;25.46;62.76
3428;BME280;1727;42.624;23.406;2023-07-20T04:32:33;94507.91;;;25.68;62.14
3428;BME280;1727;42.624;23.406;2023-07-20T04:35:00;94506.75;;;25.87;61.16
3428;BME280;1727;42.624;23.406;2023-07-20T04:37:27;94503.94;;;26.05;60.99
3428;BME280;1727;42.624;23.406;2023-07-20T04:39:54;94508.72;;;25.91;61.42
3428;BME280;1727;42.624;23.406;2023-07-20T04:42:22;94500.75;;;25.73;62.80
3428;BME280;1727;42.624;23.406;2023-07-20T04:44:51;94501.22;;;25.70;63.11
3428;BME280;1727;42.624;23.406;2023-07-20T04:47:18;94487.69;;;25.88;62.86
3428;BME280;1727;42.624;23.406;2023-07-20T04:49:46;94493.06;;;26.12;62.89
3428;BME280;1727;42.624;23.406;2023-07-20T04:52:16;94485.66;;;26.42;62.38
3428;BME280;1727;42.624;23.406;2023-07-20T04:54:42;94497.13;;;26.78;60.68
3428;BME280;1727;42.624;23.406;2023-07-20T04:57:11;94493.81;;;26.99;58.62
3428;BME280;1727;42.624;23.406;2023-07-20T04:59:39;94484.94;;;27.15;57.57
3428;BME280;1727;42.624;23.406;2023-07-20T05:02:10;94491.75;;;27.35;56.44
3428;BME280;1727;42.624;23.406;2023-07-20T05:04:37;94486.44;;;27.57;55.23
3428;BME280;1727;42.624;23.406;2023-07-20T05:07:04;94487.38;;;27.79;54.46
3428;BME280;1727;42.624;23.406;2023-07-20T05:09:31;94492.31;;;28.04;54.33
3428;BME280;1727;42.624;23.406;2023-07-20T05:11:59;94493.66;;;28.23;55.12
3428;BME280;1727;42.624;23.406;2023-07-20T05:14:29;94493.97;;;28.44;53.68
3428;BME280;1727;42.624;23.406;2023-07-20T05:16:59;94489.97;;;28.68;52.64
3428;BME280;1727;42.624;23.406;2023-07-20T05:19:26;94495.53;;;28.83;51.59
3428;BME280;1727;42.624;23.406;2023-07-20T05:39:59;94489.22;;;30.65;46.60
3428;BME280;1727;42.624;23.406;2023-07-20T05:42:26;94497.13;;;30.76;45.77
3428;BME280;1727;42.624;23.406;2023-07-20T05:44:52;94497.19;;;30.92;46.07
3428;BME280;1727;42.624;23.406;2023-07-20T05:47:23;94498.06;;;31.07;45.41
3428;BME280;1727;42.624;23.406;2023-07-20T05:49:53;94498.94;;;31.23;45.77
3428;BME280;1727;42.624;23.406;2023-07-20T05:52:20;94497.31;;;31.32;45.92
3428;BME280;1727;42.624;23.406;2023-07-20T05:54:47;94514.69;;;31.47;44.41
3428;BME280;1727;42.624;23.406;2023-07-20T05:57:15;94509.53;;;31.50;42.95
3428;BME280;1727;42.624;23.406;2023-07-20T05:59:42;94510.38;;;31.66;42.84
3428;BME280;1727;42.624;23.406;2023-07-20T06:02:09;94515.81;;;31.61;43.05
3428;BME280;1727;42.624;23.406;2023-07-20T06:04:36;94504.16;;;31.55;42.34
3428;BME280;1727;42.624;23.406;2023-07-20T06:07:06;94498.44;;;31.52;42.92
3428;BME280;1727;42.624;23.406;2023-07-20T06:09:35;94497.63;;;31.56;43.16
3428;BME280;1727;42.624;23.406;2023-07-20T06:12:03;94497.63;;;31.61;43.40
3428;BME280;1727;42.624;23.406;2023-07-20T06:14:34;94507.94;;;31.59;43.56
3428;BME280;1727;42.624;23.406;2023-07-20T06:17:05;94495.19;;;31.60;42.90
3428;BME280;1727;42.624;23.406;2023-07-20T06:19:35;94501.44;;;31.55;43.00
3428;BME280;1727;42.624;23.406;2023-07-20T06:22:02;94491.94;;;31.53;43.87
3428;BME280;1727;42.624;23.406;2023-07-20T06:24:29;94491.38;;;31.56;43.67
3428;BME280;1727;42.624;23.406;2023-07-20T06:26:56;94481.88;;;31.33;43.59
3428;BME280;1727;42.624;23.406;2023-07-20T06:29:23;94488.66;;;31.35;42.91
3428;BME280;1727;42.624;23.406;2023-07-20T06:31:51;94479.69;;;31.35;43.53
3428;BME280;1727;42.624;23.406;2023-07-20T06:34:17;94470.75;;;31.29;43.04
3428;BME280;1727;42.624;23.406;2023-07-20T06:36:45;94472.91;;;31.37;42.91
3428;BME280;1727;42.624;23.406;2023-07-20T06:39:14;94471.31;;;31.52;44.70
3428;BME280;1727;42.624;23.406;2023-07-20T06:41:44;94477.56;;;31.72;43.89
3428;BME280;1727;42.624;23.406;2023-07-20T06:44:12;94478.66;;;31.71;42.13
3428;BME280;1727;42.624;23.406;2023-07-20T06:46:39;94482.72;;;31.79;43.23
3428;BME280;1727;42.624;23.406;2023-07-20T06:49:07;94476.22;;;31.75;42.59
3428;BME280;1727;42.624;23.406;2023-07-20T06:51:37;94481.94;;;31.84;43.17
3428;BME280;1727;42.624;23.406;2023-07-20T06:54:05;94482.16;;;32.08;43.45
3428;BME280;1727;42.624;23.406;2023-07-20T06:56:32;94482.44;;;32.16;44.31
3428;BME280;1727;42.624;23.406;2023-07-20T06:58:59;94479.97;;;32.25;42.47
3428;BME280;1727;42.624;23.406;2023-07-20T07:01:28;94476.69;;;32.33;42.21
3428;BME280;1727;42.624;23.406;2023-07-20T07:03:54;94493.00;;;32.33;42.28
3428;BME280;1727;42.624;23.406;2023-07-20T07:06:23;94495.16;;;32.36;41.93
3428;BME280;1727;42.624;23.406;2023-07-20T07:08:49;94500.06;;;32.44;42.84
3428;BME280;1727;42.624;23.406;2023-07-20T07:11:16;94511.09;;;32.73;43.17
3428;BME280;1727;42.624;23.406;2023-07-20T07:13:43;94506.84;;;32.37;42.67
3428;BME280;1727;42.624;23.406;2023-07-20T07:16:13;94511.47;;;32.05;44.38
3428;BME280;1727;42.624;23.406;2023-07-20T07:18:44;94513.63;;;31.58;46.11
3428;BME280;1727;42.624;23.406;2023-07-20T07:21:16;94521.91;;;31.16;46.59
3428;BME280;1727;42.624;23.406;2023-07-20T07:23:46;94529.66;;;30.81;46.53
3428;BME280;1727;42.624;23.406;2023-07-20T07:26:13;94537.63;;;30.56;47.67
3428;BME280;1727;42.624;23.406;2023-07-20T07:28:44;94546.84;;;30.55;48.28
3428;BME280;1727;42.624;23.406;2023-07-20T07:31:11;94556.47;;;30.73;47.86
3428;BME280;1727;42.624;23.406;2023-07-20T07:33:38;94547.84;;;30.86;47.71
3428;BME280;1727;42.624;23.406;2023-07-20T07:36:05;94552.66;;;30.69;48.46
3428;BME280;1727;42.624;23.406;2023-07-20T07:38:32;94555.94;;;30.81;48.02
3428;BME280;1727;42.624;23.406;2023-07-20T07:41:00;94543.97;;;30.67;47.87
3428;BME280;1727;42.624;23.406;2023-07-20T07:43:27;94539.91;;;30.69;47.48
3428;BME280;1727;42.624;23.406;2023-07-20T07:45:54;94537.00;;;30.86;48.75
3428;BME280;1727;42.624;23.406;2023-07-20T07:48:21;94530.50;;;30.87;48.98
3428;BME280;1727;42.624;23.406;2023-07-20T07:50:50;94530.25;;;30.94;48.08
3428;BME280;1727;42.624;23.406;2023-07-20T07:53:17;94539.69;;;30.81;48.24
3428;BME280;1727;42.624;23.406;2023-07-20T07:55:45;94522.91;;;30.89;47.64
3428;BME280;1727;42.624;23.406;2023-07-20T07:58:15;94497.75;;;30.99;46.95
3428;BME280;1727;42.624;23.406;2023-07-20T08:00:42;94498.38;;;31.16;47.75
3428;BME280;1727;42.624;23.406;2023-07-20T08:03:10;94493.53;;;31.23;45.63
3428;BME280;1727;42.624;23.406;2023-07-20T08:05:37;94513.06;;;31.35;46.86
3428;BME280;1727;42.624;23.406;2023-07-20T08:08:04;94488.66;;;31.66;46.88
3428;BME280;1727;42.624;23.406;2023-07-20T08:10:31;94493.59;;;31.94;46.62
3428;BME280;1727;42.624;23.406;2023-07-20T08:12:58;94503.31;;;32.21;46.19
3428;BME280;1727;42.624;23.406;2023-07-20T08:15:28;94515.50;;;32.49;45.73
3428;BME280;1727;42.624;23.406;2023-07-20T08:17:55;94528.00;;;32.50;43.77
3428;BME280;1727;42.624;23.406;2023-07-20T08:20:22;94544.00;;;32.56;43.08
3428;BME280;1727;42.624;23.406;2023-07-20T08:22:52;94548.66;;;32.51;42.95
3428;BME280;1727;42.624;23.406;2023-07-20T08:25:19;94539.72;;;32.45;44.92
3428;BME280;1727;42.624;23.406;2023-07-20T08:27:46;94534.84;;;32.17;44.58
3428;BME280;1727;42.624;23.406;2023-07-20T08:30:13;94535.09;;;31.95;45.64
3428;BME280;1727;42.624;23.406;2023-07-20T08:32:41;94543.78;;;31.97;45.97
3428;BME280;1727;42.624;23.406;2023-07-20T08:35:08;94531.56;;;31.79;47.60
3428;BME280;1727;42.624;23.406;2023-07-20T08:37:35;94520.16;;;31.77;46.44
3428;BME280;1727;42.624;23.406;2023-07-20T08:40:02;94530.78;;;31.84;47.17
3428;BME280;1727;42.624;23.406;2023-07-20T08:42:33;94531.31;;;31.86;47.55
3428;BME280;1727;42.624;23.406;2023-07-20T08:45:05;94531.81;;;31.67;48.94
3428;BME280;1727;42.624;23.406;2023-07-20T08:47:33;94529.06;;;31.42;49.28
3428;BME280;1727;42.624;23.406;2023-07-20T08:50:02;94532.88;;;31.46;48.69
3428;BME280;1727;42.624;23.406;2023-07-20T08:52:33;94539.91;;;31.27;47.20
3428;BME280;1727;42.624;23.406;2023-07-20T08:55:01;94535.47;;;31.10;45.48
3428;BME280;1727;42.624;23.406;2023-07-20T08:57:31;94537.59;;;30.98;46.37
3428;BME280;1727;42.624;23.406;2023-07-20T09:00:00;94535.72;;;30.99;44.68
3428;BME280;1727;42.624;23.406;2023-07-20T09:02:31;94538.63;;;30.87;45.61
3428;BME280;1727;42.624;23.406;2023-07-20T09:05:02;94536.50;;;30.94;46.90
3428;BME280;1727;42.624;23.406;2023-07-20T09:07:30;94527.41;;;30.63;45.13
3428;BME280;1727;42.624;23.406;2023-07-20T09:09:58;94524.88;;;30.51;43.79
3428;BME280;1727;42.624;23.406;2023-07-20T09:12:31;94518.19;;;30.64;44.41
3428;BME280;1727;42.624;23.406;2023-07-20T09:14:58;94511.22;;;30.73;44.65
3428;BME280;1727;42.624;23.406;2023-07-20T09:17:26;94506.16;;;30.40;43.59
3428;BME280;1727;42.624;23.406;2023-07-20T09:19:54;94526.06;;;30.24;44.88
3428;BME280;1727;42.624;23.406;2023-07-20T09:22:27;94522.59;;;30.28;44.69
3428;BME280;1727;42.624;23.406;2023-07-20T09:24:56;94512.66;;;30.39;45.86
3428;BME280;1727;42.624;23.406;2023-07-20T09:27:34;94521.88;;;30.43;45.23
3428;BME280;1727;42.624;23.406;2023-07-20T09:30:01;94503.91;;;30.32;44.47
3428;BME280;1727;42.624;23.406;2023-07-20T09:32:29;94511.56;;;30.40;44.63
3428;BME280;1727;42.624;23.406;2023-07-20T09:34:56;94513.22;;;30.46;45.20
3428;BME280;1727;42.624;23.406;2023-07-20T09:37:27;94504.84;;;30.47;44.33
3428;BME280;1727;42.624;23.406;2023-07-20T09:39:54;94514.63;;;30.59;43.89
3428;BME280;1727;42.624;23.406;2023-07-20T09:42:21;94516.06;;;30.66;44.59
3428;BME280;1727;42.624;23.406;2023-07-20T09:44:51;94506.09;;;30.77;43.31
3428;BME280;1727;42.624;23.406;2023-07-20T09:47:21;94495.84;;;30.94;42.97
3428;BME280;1727;42.624;23.406;2023-07-20T09:49:49;94494.19;;;30.93;42.60
3428;BME280;1727;42.624;23.406;2023-07-20T09:52:16;94493.91;;;30.85;42.54
3428;BME280;1727;42.624;23.406;2023-07-20T09:54:46;94481.69;;;30.77;40.64
3428;BME280;1727;42.624;23.406;2023-07-20T09:57:13;94489.03;;;30.81;40.25
3428;BME280;1727;42.624;23.406;2023-07-20T09:59:40;94478.19;;;30.87;42.66
3428;BME280;1727;42.624;23.406;2023-07-20T10:02:12;94473.63;;;30.97;42.09
3428;BME280;1727;42.624;23.406;2023-07-20T10:04:43;94467.69;;;30.95;43.09
3428;BME280;1727;42.624;23.406;2023-07-20T10:07:11;94460.91;;;30.98;43.38
3428;BME280;1727;42.624;23.406;2023-07-20T10:09:40;94462.22;;;30.90;42.17
3428;BME280;1727;42.624;23.406;2023-07-20T10:12:09;94467.09;;;30.93;43.25
3428;BME280;1727;42.624;23.406;2023-07-20T10:14:41;94467.91;;;30.83;42.16
3428;BME280;1727;42.624;23.406;2023-07-20T10:17:11;94470.06;;;30.81;42.42
3428;BME280;1727;42.624;23.406;2023-07-20T10:19:49;94467.06;;;30.73;42.72
3428;BME280;1727;42.624;23.406;2023-07-20T10:22:22;94470.47;;;30.58;42.97
3428;BME280;1727;42.624;23.406;2023-07-20T10:24:51;94475.31;;;30.51;40.46
3428;BME280;1727;42.624;23.406;2023-07-20T10:27:20;94471.00;;;30.55;40.90
3428;BME280;1727;42.624;23.406;2023-07-20T10:29:47;94473.28;;;30.68;41.04
3428;BME280;1727;42.624;23.406;2023-07-20T10:32:14;94489.56;;;30.83;41.96
3428;BME280;1727;42.624;23.406;2023-07-20T10:34:41;94494.47;;;30.87;39.53
3428;BME280;1727;42.624;23.406;2023-07-20T10:37:08;94478.75;;;30.94;38.84
3428;BME280;1727;42.624;23.406;2023-07-20T10:39:35;94475.28;;;31.03;39.05
3428;BME280;1727;42.624;23.406;2023-07-20T10:42:03;94478.53;;;31.10;39.04
3428;BME280;1727;42.624;23.406;2023-07-20T10:44:31;94458.25;;;31.18;39.69
3428;BME280;1727;42.624;23.406;2023-07-20T10:46:59;94464.78;;;31.32;40.14
3428;BME280;1727;42.624;23.406;2023-07-20T10:49:27;94452.25;;;31.11;38.29
3428;BME280;1727;42.624;23.406;2023-07-20T10:51:57;94446.72;;;30.70;37.41
3428;BME280;1727;42.624;23.406;2023-07-20T10:54:34;94419.63;;;30.65;38.17
3428;BME280;1727;42.624;23.406;2023-07-20T10:57:22;94396.06;;;30.66;39.56
3428;BME280;1727;42.624;23.406;2023-07-20T10:59:51;94411.47;;;30.60;40.69
3428;BME280;1727;42.624;23.406;2023-07-20T11:02:18;94421.72;;;30.58;41.08
3428;BME280;1727;42.624;23.406;2023-07-20T11:04:46;94423.59;;;30.52;41.65
3428;BME280;1727;42.624;23.406;2023-07-20T11:07:15;94417.34;;;30.47;42.32
3428;BME280;1727;42.624;23.406;2023-07-20T11:09:44;94398.38;;;30.37;41.24
3428;BME280;1727;42.624;23.406;2023-07-20T11:12:14;94387.22;;;30.33;41.66
3428;BME280;1727;42.624;23.406;2023-07-20T11:14:42;94401.09;;;30.42;42.44
3428;BME280;1727;42.624;23.406;2023-07-20T11:17:16;94393.88;;;30.63;41.17
3428;BME280;1727;42.624;23.406;2023-07-20T11:19:48;94391.47;;;30.81;40.27
3428;BME280;1727;42.624;23.406;2023-07-20T11:22:17;94399.09;;;30.95;38.78
3428;BME280;1727;42.624;23.406;2023-07-20T11:24:54;94401.28;;;31.08;39.81
3428;BME280;1727;42.624;23.406;2023-07-20T11:27:24;94395.34;;;31.21;40.70
3428;BME280;1727;42.624;23.406;2023-07-20T11:29:55;94397.00;;;31.37;41.75
3428;BME280;1727;42.624;23.406;2023-07-20T11:32:25;94390.19;;;31.50;39.92
3428;BME280;1727;42.624;23.406;2023-07-20T11:34:52;94382.88;;;31.61;40.89
3428;BME280;1727;42.624;23.406;2023-07-20T11:37:19;94382.88;;;31.71;40.48
3428;BME280;1727;42.624;23.406;2023-07-20T11:39:46;94379.59;;;31.89;41.84
3428;BME280;1727;42.624;23.406;2023-07-20T11:42:14;94387.69;;;32.04;40.02
3428;BME280;1727;42.624;23.406;2023-07-20T11:44:41;94379.53;;;32.15;41.36
3428;BME280;1727;42.624;23.406;2023-07-20T11:47:09;94370.00;;;32.17;39.52
3428;BME280;1727;42.624;23.406;2023-07-20T11:49:40;94369.41;;;32.35;40.21
3428;BME280;1727;42.624;23.406;2023-07-20T11:52:08;94360.13;;;32.47;40.04
3428;BME280;1727;42.624;23.406;2023-07-20T11:54:37;94360.91;;;32.52;38.83
3428;BME280;1727;42.624;23.406;2023-07-20T11:57:05;94346.69;;;32.65;40.43
3428;BME280;1727;42.624;23.406;2023-07-20T11:59:32;94348.84;;;32.74;40.17
3428;BME280;1727;42.624;23.406;2023-07-20T12:02:00;94345.84;;;32.75;39.24
3428;BME280;1727;42.624;23.406;2023-07-20T12:04:30;94347.13;;;32.88;40.15
3428;BME280;1727;42.624;23.406;2023-07-20T12:06:59;94344.38;;;32.93;40.76
3428;BME280;1727;42.624;23.406;2023-07-20T12:09:26;94324.00;;;32.90;40.35
3428;BME280;1727;42.624;23.406;2023-07-20T12:11:53;94328.06;;;32.98;40.20
3428;BME280;1727;42.624;23.406;2023-07-20T12:14:20;94338.38;;;33.01;39.60
3428;BME280;1727;42.624;23.406;2023-07-20T12:16:53;94333.34;;;32.79;37.63
3428;BME280;1727;42.624;23.406;2023-07-20T12:19:20;94328.25;;;32.68;39.24
3428;BME280;1727;42.624;23.406;2023-07-20T12:21:47;94320.91;;;32.63;39.49
3428;BME280;1727;42.624;23.406;2023-07-20T12:24:17;94311.16;;;32.57;40.10
3428;BME280;1727;42.624;23.406;2023-07-20T12:26:44;94316.59;;;32.57;40.45
3428;BME280;1727;42.624;23.406;2023-07-20T12:29:11;94314.41;;;32.59;36.98
3428;BME280;1727;42.624;23.406;2023-07-20T12:31:38;94307.63;;;32.56;36.34
3428;BME280;1727;42.624;23.406;2023-07-20T12:34:06;94318.47;;;32.61;37.76
3428;BME280;1727;42.624;23.406;2023-07-20T12:36:33;94306.75;;;32.71;37.27
3428;BME280;1727;42.624;23.406;2023-07-20T12:39:01;94304.78;;;32.77;35.91
3428;BME280;1727;42.624;23.406;2023-07-20T12:41:31;94304.25;;;32.80;36.70
3428;BME280;1727;42.624;23.406;2023-07-20T12:43:58;94301.22;;;32.86;37.97
3428;BME280;1727;42.624;23.406;2023-07-20T12:46:25;94305.28;;;32.89;35.76
3428;BME280;1727;42.624;23.406;2023-07-20T12:48:54;94294.09;;;32.90;36.45
3428;BME280;1727;42.624;23.406;2023-07-20T12:51:21;94302.03;;;32.87;36.47
3428;BME280;1727;42.624;23.406;2023-07-20T12:53:48;94295.78;;;32.86;35.80
3428;BME280;1727;42.624;23.406;2023-07-20T12:56:15;94281.91;;;32.88;36.06
3428;BME280;1727;42.624;23.406;2023-07-20T12:58:43;94298.25;;;32.83;35.36
3428;BME280;1727;42.624;23.406;2023-07-20T13:01:10;94281.41;;;32.81;35.37
3428;BME280;1727;42.624;23.406;2023-07-20T13:03:37;94286.34;;;32.74;33.54
3428;BME280;1727;42.624;23.406;2023-07-20T13:06:04;94293.13;;;32.76;34.82
3428;BME280;1727;42.624;23.406;2023-07-20T13:08:31;94290.19;;;32.68;32.18
3428;BME280;1727;42.624;23.406;2023-07-20T13:10:58;94297.25;;;32.69;33.58
3428;BME280;1727;42.624;23.406;2023-07-20T13:13:26;94283.91;;;32.67;33.31
3428;BME280;1727;42.624;23.406;2023-07-20T13:15:55;94289.09;;;32.63;33.13
3428;BME280;1727;42.624;23.406;2023-07-20T13:18:21;94285.88;;;32.61;34.12
3428;BME280;1727;42.624;23.406;2023-07-20T13:20:48;94296.16;;;32.64;34.13
3428;BME280;1727;42.624;23.406;2023-07-20T13:23:15;94287.72;;;32.66;35.15
3428;BME280;1727;42.624;23.406;2023-07-20T13:25:42;94283.69;;;32.63;35.89
3428;BME280;1727;42.624;23.406;2023-07-20T13:28:09;94284.75;;;32.68;35.24
3428;BME280;1727;42.624;23.406;2023-07-20T13:30:36;94280.63;;;32.75;34.66
3428;BME280;1727;42.624;23.406;2023-07-20T13:33:04;94280.34;;;32.77;36.18
3428;BME280;1727;42.624;23.406;2023-07-20T13:35:31;94286.31;;;32.79;36.21
3428;BME280;1727;42.624;23.406;2023-07-20T13:37:58;94283.34;;;32.75;36.00